sensor_id;sensor_type;location;lat;lon;timestamp;pressure;altitude;pressure_sealevel;temperature;humidity
65276;BME280;51875;49.994;14.052;2023-03-13T00:00:29;97790.59;;;8.34;100.00
65276;BME280;51875;49.994;14.052;2023-03-13T00:02:04;97793.00;;;8.40;100.00
65276;BME280;51875;49.994;14.052;2023-03-13T00:03:20;97792.00;;;8.44;100.00
65276;BME280;51875;49.994;14.052;2023-03-13T00:04:35;97793.22;;;8.34;100.00
65276;BME280;51875;49.994;14.052;2023-03-13T00:05:56;97791.66;;;8.27;100.00
65276;BME280;51875;49.994;14.052;2023-03-13T00:07:11;97794.84;;;8.37;100.00
65276;BME280;51875;49.994;14.052;2023-03-13T00:08:28;97795.25;;;8.24;100.00
65276;BME280;51875;49.994;14.052;2023-03-13T00:09:44;97791.78;;;8.22;100.00
65276;BME280;51875;49.994;14.052;2023-03-13T00:11:04;97791.16;;;8.45;100.00
65276;BME280;51875;49.994;14.052;2023-03-13T00:12:19;97796.75;;;8.31;100.00
65276;BME280;51875;49.994;14.052;2023-03-13T00:13:35;97789.63;;;8.37;100.00
65276;BME280;51875;49.994;14.052;2023-03-13T00:14:51;97789.72;;;8.33;100.00
65276;BME280;51875;49.994;14.052;2023-03-13T00:16:09;97793.25;;;8.32;100.00
65276;BME280;51875;49.994;14.052;2023-03-13T00:17:25;97791.94;;;8.47;100.00
65276;BME280;51875;49.994;14.052;2023-03-13T00:18:49;97790.38;;;8.42;100.00
65276;BME280;51875;49.994;14.052;2023-03-13T00:20:06;97787.34;;;8.57;100.00
65276;BME280;51875;49.994;14.052;2023-03-13T00:21:25;97784.34;;;8.40;100.00
65276;BME280;51875;49.994;14.052;2023-03-13T00:22:41;97784.94;;;8.50;100.00
65276;BME280;51875;49.994;14.052;2023-03-13T00:23:58;97786.44;;;8.58;100.00
65276;BME280;51875;49.994;14.052;2023-03-13T00:25:14;97781.25;;;8.57;100.00
65276;BME280;51875;49.994;14.052;2023-03-13T00:26:29;97782.13;;;8.57;100.00
65276;BME280;51875;49.994;14.052;2023-03-13T00:27:48;97774.88;;;8.66;100.00
65276;BME280;51875;49.994;14.052;2023-03-13T00:29:04;97768.25;;;8.55;100.00
65276;BME280;51875;49.994;14.052;2023-03-13T00:30:19;97773.38;;;8.58;100.00
65276;BME280;51875;49.994;14.052;2023-03-13T00:31:35;97778.81;;;8.52;100.00
65276;BME280;51875;49.994;14.052;2023-03-13T00:32:51;97771.84;;;8.51;100.00
65276;BME280;51875;49.994;14.052;2023-03-13T00:34:06;97767.13;;;8.64;100.00
65276;BME280;51875;49.994;14.052;2023-03-13T00:35:22;97769.88;;;8.59;100.00
65276;BME280;51875;49.994;14.052;2023-03-13T00:36:37;97769.59;;;8.69;100.00
65276;BME280;51875;49.994;14.052;2023-03-13T00:37:53;97771.44;;;8.65;100.00
65276;BME280;51875;49.994;14.052;2023-03-13T00:39:09;97760.34;;;8.58;100.00
65276;BME280;51875;49.994;14.052;2023-03-13T00:40:24;97759.53;;;8.56;100.00
65276;BME280;51875;49.994;14.052;2023-03-13T00:41:40;97762.75;;;8.65;100.00
65276;BME280;51875;49.994;14.052;2023-03-13T00:42:56;97764.97;;;8.77;100.00
65276;BME280;51875;49.994;14.052;2023-03-13T00:44:11;97762.03;;;8.59;100.00
65276;BME280;51875;49.994;14.052;2023-03-13T00:45:27;97760.66;;;8.76;100.00
65276;BME280;51875;49.994;14.052;2023-03-13T00:46:42;97753.06;;;8.68;100.00
65276;BME280;51875;49.994;14.052;2023-03-13T00:47:58;97752.72;;;8.79;100.00
65276;BME280;51875;49.994;14.052;2023-03-13T00:49:14;97756.16;;;8.81;100.00
65276;BME280;51875;49.994;14.052;2023-03-13T00:50:29;97752.78;;;8.78;100.00
65276;BME280;51875;49.994;14.052;2023-03-13T00:51:45;97757.06;;;8.80;100.00
65276;BME280;51875;49.994;14.052;2023-03-13T00:53:01;97748.91;;;8.89;100.00
65276;BME280;51875;49.994;14.052;2023-03-13T00:54:16;97750.09;;;8.79;100.00
65276;BME280;51875;49.994;14.052;2023-03-13T00:55:32;97758.03;;;8.76;100.00
65276;BME280;51875;49.994;14.052;2023-03-13T00:56:47;97751.84;;;8.80;100.00
65276;BME280;51875;49.994;14.052;2023-03-13T00:58:03;97756.31;;;8.76;100.00
65276;BME280;51875;49.994;14.052;2023-03-13T00:59:19;97750.44;;;8.70;100.00
65276;BME280;51875;49.994;14.052;2023-03-13T01:00:34;97755.44;;;8.76;100.00
65276;BME280;51875;49.994;14.052;2023-03-13T01:01:50;97758.28;;;8.68;100.00
65276;BME280;51875;49.994;14.052;2023-03-13T01:03:05;97758.44;;;8.64;100.00
65276;BME280;51875;49.994;14.052;2023-03-13T01:04:21;97755.00;;;8.61;100.00
65276;BME280;51875;49.994;14.052;2023-03-13T01:05:37;97743.44;;;8.70;100.00
65276;BME280;51875;49.994;14.052;2023-03-13T01:06:52;97752.13;;;8.71;100.00
65276;BME280;51875;49.994;14.052;2023-03-13T01:08:08;97747.81;;;8.70;100.00
65276;BME280;51875;49.994;14.052;2023-03-13T01:09:23;97744.31;;;8.71;100.00
65276;BME280;51875;49.994;14.052;2023-03-13T01:10:39;97750.22;;;8.76;100.00
65276;BME280;51875;49.994;14.052;2023-03-13T01:11:55;97753.97;;;8.67;100.00
65276;BME280;51875;49.994;14.052;2023-03-13T01:13:10;97752.16;;;8.69;100.00
65276;BME280;51875;49.994;14.052;2023-03-13T01:14:26;97771.31;;;8.70;100.00
65276;BME280;51875;49.994;14.052;2023-03-13T01:15:42;97767.50;;;8.80;100.00
65276;BME280;51875;49.994;14.052;2023-03-13T01:16:57;97761.53;;;8.76;100.00
65276;BME280;51875;49.994;14.052;2023-03-13T01:18:13;97759.59;;;8.82;100.00
65276;BME280;51875;49.994;14.052;2023-03-13T01:19:29;97753.03;;;8.70;100.00
65276;BME280;51875;49.994;14.052;2023-03-13T01:20:45;97756.31;;;8.76;100.00
65276;BME280;51875;49.994;14.052;2023-03-13T01:22:00;97749.31;;;8.77;100.00
65276;BME280;51875;49.994;14.052;2023-03-13T01:23:16;97750.69;;;8.60;100.00
65276;BME280;51875;49.994;14.052;2023-03-13T01:24:32;97751.47;;;8.64;100.00
65276;BME280;51875;49.994;14.052;2023-03-13T01:25:48;97742.50;;;8.73;100.00
65276;BME280;51875;49.994;14.052;2023-03-13T01:27:03;97741.53;;;8.75;100.00
65276;BME280;51875;49.994;14.052;2023-03-13T01:28:19;97740.03;;;8.68;100.00
65276;BME280;51875;49.994;14.052;2023-03-13T01:29:34;97736.81;;;8.60;100.00
65276;BME280;51875;49.994;14.052;2023-03-13T01:30:50;97735.97;;;8.58;100.00
65276;BME280;51875;49.994;14.052;2023-03-13T01:32:06;97738.06;;;8.46;100.00
65276;BME280;51875;49.994;14.052;2023-03-13T01:33:22;97740.72;;;8.45;100.00
65276;BME280;51875;49.994;14.052;2023-03-13T01:34:37;97734.38;;;8.54;100.00
65276;BME280;51875;49.994;14.052;2023-03-13T01:36:00;97734.50;;;8.49;100.00
65276;BME280;51875;49.994;14.052;2023-03-13T01:37:16;97728.75;;;8.38;100.00
65276;BME280;51875;49.994;14.052;2023-03-13T01:38:32;97728.41;;;8.50;100.00
65276;BME280;51875;49.994;14.052;2023-03-13T01:39:48;97723.34;;;8.44;100.00
65276;BME280;51875;49.994;14.052;2023-03-13T01:41:05;97716.28;;;8.47;100.00
65276;BME280;51875;49.994;14.052;2023-03-13T01:42:20;97716.13;;;8.54;100.00
65276;BME280;51875;49.994;14.052;2023-03-13T01:43:36;97711.97;;;8.46;100.00
65276;BME280;51875;49.994;14.052;2023-03-13T01:44:54;97717.59;;;8.32;100.00
65276;BME280;51875;49.994;14.052;2023-03-13T01:46:24;97712.16;;;8.40;100.00
65276;BME280;51875;49.994;14.052;2023-03-13T01:47:41;97712.50;;;8.29;100.00
65276;BME280;51875;49.994;14.052;2023-03-13T01:49:17;97711.13;;;8.46;100.00
65276;BME280;51875;49.994;14.052;2023-03-13T01:50:34;97709.19;;;8.53;100.00
65276;BME280;51875;49.994;14.052;2023-03-13T01:51:53;97719.38;;;8.60;100.00
65276;BME280;51875;49.994;14.052;2023-03-13T01:53:09;97707.53;;;8.50;100.00
65276;BME280;51875;49.994;14.052;2023-03-13T01:54:38;97704.09;;;8.48;100.00
65276;BME280;51875;49.994;14.052;2023-03-13T01:55:58;97711.31;;;8.68;100.00
65276;BME280;51875;49.994;14.052;2023-03-13T01:57:24;97714.06;;;8.64;100.00
65276;BME280;51875;49.994;14.052;2023-03-13T01:58:40;97713.56;;;8.79;100.00
65276;BME280;51875;49.994;14.052;2023-03-13T02:00:04;97711.97;;;8.46;100.00
65276;BME280;51875;49.994;14.052;2023-03-13T02:01:22;97712.56;;;8.56;100.00
65276;BME280;51875;49.994;14.052;2023-03-13T02:02:42;97710.13;;;8.50;100.00
65276;BME280;51875;49.994;14.052;2023-03-13T02:03:59;97712.97;;;8.42;100.00
65276;BME280;51875;49.994;14.052;2023-03-13T02:05:19;97705.31;;;8.08;100.00
65276;BME280;51875;49.994;14.052;2023-03-13T02:06:37;97706.56;;;7.94;100.00
65276;BME280;51875;49.994;14.052;2023-03-13T02:08:14;97711.28;;;7.49;100.00
65276;BME280;51875;49.994;14.052;2023-03-13T02:09:33;97716.19;;;7.29;100.00
65276;BME280;51875;49.994;14.052;2023-03-13T02:10:55;97715.63;;;7.17;100.00
65276;BME280;51875;49.994;14.052;2023-03-13T02:12:15;97718.00;;;6.92;100.00
65276;BME280;51875;49.994;14.052;2023-03-13T02:13:32;97713.66;;;6.91;100.00
65276;BME280;51875;49.994;14.052;2023-03-13T02:14:49;97725.00;;;6.88;100.00
65276;BME280;51875;49.994;14.052;2023-03-13T02:16:05;97718.44;;;6.73;100.00
65276;BME280;51875;49.994;14.052;2023-03-13T02:17:21;97723.72;;;7.05;100.00
65276;BME280;51875;49.994;14.052;2023-03-13T02:18:38;97715.06;;;7.04;100.00
65276;BME280;51875;49.994;14.052;2023-03-13T02:19:53;97716.50;;;6.82;100.00
65276;BME280;51875;49.994;14.052;2023-03-13T02:21:35;97719.50;;;6.64;100.00
65276;BME280;51875;49.994;14.052;2023-03-13T02:24:39;97706.50;;;7.01;100.00
65276;BME280;51875;49.994;14.052;2023-03-13T02:25:58;97709.81;;;7.06;100.00
65276;BME280;51875;49.994;14.052;2023-03-13T02:27:15;97707.41;;;7.33;100.00
65276;BME280;51875;49.994;14.052;2023-03-13T02:28:32;97717.81;;;7.00;100.00
65276;BME280;51875;49.994;14.052;2023-03-13T02:29:50;97711.38;;;7.13;100.00
65276;BME280;51875;49.994;14.052;2023-03-13T02:31:07;97714.75;;;6.82;100.00
65276;BME280;51875;49.994;14.052;2023-03-13T02:32:24;97715.91;;;7.06;100.00
65276;BME280;51875;49.994;14.052;2023-03-13T02:33:41;97716.31;;;6.89;100.00
65276;BME280;51875;49.994;14.052;2023-03-13T02:35:05;97712.00;;;6.88;100.00
65276;BME280;51875;49.994;14.052;2023-03-13T02:36:22;97715.22;;;6.98;100.00
65276;BME280;51875;49.994;14.052;2023-03-13T02:37:40;97710.94;;;6.96;100.00
65276;BME280;51875;49.994;14.052;2023-03-13T02:39:00;97709.28;;;7.28;100.00
65276;BME280;51875;49.994;14.052;2023-03-13T02:40:24;97705.69;;;7.32;100.00
65276;BME280;51875;49.994;14.052;2023-03-13T02:41:41;97705.84;;;7.26;100.00
65276;BME280;51875;49.994;14.052;2023-03-13T02:43:00;97704.34;;;7.50;100.00
65276;BME280;51875;49.994;14.052;2023-03-13T02:44:16;97706.50;;;7.01;100.00
65276;BME280;51875;49.994;14.052;2023-03-13T02:45:31;97706.19;;;7.45;100.00
65276;BME280;51875;49.994;14.052;2023-03-13T02:46:49;97698.44;;;7.43;100.00
65276;BME280;51875;49.994;14.052;2023-03-13T02:48:06;97690.16;;;7.29;100.00
65276;BME280;51875;49.994;14.052;2023-03-13T02:49:27;97697.25;;;7.55;100.00
65276;BME280;51875;49.994;14.052;2023-03-13T02:50:43;97692.81;;;7.59;100.00
65276;BME280;51875;49.994;14.052;2023-03-13T02:52:23;97694.03;;;7.45;100.00
65276;BME280;51875;49.994;14.052;2023-03-13T02:53:41;97697.13;;;7.60;100.00
65276;BME280;51875;49.994;14.052;2023-03-13T02:55:14;97694.66;;;7.54;100.00
65276;BME280;51875;49.994;14.052;2023-03-13T02:56:33;97703.88;;;7.34;100.00
65276;BME280;51875;49.994;14.052;2023-03-13T02:57:50;97696.44;;;7.53;100.00
65276;BME280;51875;49.994;14.052;2023-03-13T02:59:05;97691.94;;;7.58;100.00
65276;BME280;51875;49.994;14.052;2023-03-13T03:00:21;97690.97;;;7.62;100.00
65276;BME280;51875;49.994;14.052;2023-03-13T03:01:41;97683.69;;;7.74;100.00
65276;BME280;51875;49.994;14.052;2023-03-13T03:02:56;97689.44;;;7.55;100.00
65276;BME280;51875;49.994;14.052;2023-03-13T03:04:12;97677.75;;;7.69;100.00
65276;BME280;51875;49.994;14.052;2023-03-13T03:05:28;97680.13;;;7.78;100.00
65276;BME280;51875;49.994;14.052;2023-03-13T03:06:43;97679.22;;;7.47;100.00
65276;BME280;51875;49.994;14.052;2023-03-13T03:07:59;97682.72;;;7.46;100.00
65276;BME280;51875;49.994;14.052;2023-03-13T03:09:15;97676.66;;;7.46;100.00
65276;BME280;51875;49.994;14.052;2023-03-13T03:10:31;97682.28;;;7.30;100.00
65276;BME280;51875;49.994;14.052;2023-03-13T03:11:46;97684.34;;;7.51;100.00
65276;BME280;51875;49.994;14.052;2023-03-13T03:13:02;97679.78;;;7.26;100.00
65276;BME280;51875;49.994;14.052;2023-03-13T03:14:18;97679.00;;;7.55;100.00
65276;BME280;51875;49.994;14.052;2023-03-13T03:15:33;97676.38;;;7.57;100.00
65276;BME280;51875;49.994;14.052;2023-03-13T03:16:49;97680.78;;;7.55;100.00
65276;BME280;51875;49.994;14.052;2023-03-13T03:18:05;97671.88;;;7.62;100.00
65276;BME280;51875;49.994;14.052;2023-03-13T03:19:21;97675.34;;;7.62;100.00
65276;BME280;51875;49.994;14.052;2023-03-13T03:20:36;97670.53;;;7.78;100.00
65276;BME280;51875;49.994;14.052;2023-03-13T03:21:52;97678.47;;;7.11;100.00
65276;BME280;51875;49.994;14.052;2023-03-13T03:23:08;97679.75;;;7.27;100.00
65276;BME280;51875;49.994;14.052;2023-03-13T03:24:23;97675.34;;;7.62;100.00
65276;BME280;51875;49.994;14.052;2023-03-13T03:25:39;97678.34;;;7.47;100.00
65276;BME280;51875;49.994;14.052;2023-03-13T03:26:55;97681.50;;;7.60;100.00
65276;BME280;51875;49.994;14.052;2023-03-13T03:28:10;97678.47;;;7.74;100.00
65276;BME280;51875;49.994;14.052;2023-03-13T03:29:26;97672.66;;;7.96;100.00
65276;BME280;51875;49.994;14.052;2023-03-13T03:30:42;97678.72;;;7.96;100.00
65276;BME280;51875;49.994;14.052;2023-03-13T03:31:58;97680.03;;;8.10;100.00
65276;BME280;51875;49.994;14.052;2023-03-13T03:33:13;97671.59;;;8.01;100.00
65276;BME280;51875;49.994;14.052;2023-03-13T03:34:29;97671.94;;;7.90;100.00
65276;BME280;51875;49.994;14.052;2023-03-13T03:35:44;97674.44;;;7.94;100.00
65276;BME280;51875;49.994;14.052;2023-03-13T03:37:00;97675.03;;;7.73;100.00
65276;BME280;51875;49.994;14.052;2023-03-13T03:38:16;97666.84;;;7.86;100.00
65276;BME280;51875;49.994;14.052;2023-03-13T03:39:31;97676.38;;;7.57;100.00
65276;BME280;51875;49.994;14.052;2023-03-13T03:40:47;97670.06;;;7.64;100.00
65276;BME280;51875;49.994;14.052;2023-03-13T03:42:03;97678.25;;;7.82;100.00
65276;BME280;51875;49.994;14.052;2023-03-13T03:43:19;97670.84;;;7.98;100.00
65276;BME280;51875;49.994;14.052;2023-03-13T03:44:34;97668.47;;;7.60;100.00
65276;BME280;51875;49.994;14.052;2023-03-13T03:45:50;97673.94;;;7.81;100.00
65276;BME280;51875;49.994;14.052;2023-03-13T03:47:06;97667.91;;;7.78;100.00
65276;BME280;51875;49.994;14.052;2023-03-13T03:48:21;97671.19;;;7.85;100.00
65276;BME280;51875;49.994;14.052;2023-03-13T03:49:37;97665.06;;;7.88;100.00
65276;BME280;51875;49.994;14.052;2023-03-13T03:50:53;97664.50;;;7.76;100.00
65276;BME280;51875;49.994;14.052;2023-03-13T03:52:09;97660.31;;;8.01;100.00
65276;BME280;51875;49.994;14.052;2023-03-13T03:53:24;97658.84;;;7.92;100.00
65276;BME280;51875;49.994;14.052;2023-03-13T03:54:40;97664.69;;;8.00;100.00
65276;BME280;51875;49.994;14.052;2023-03-13T03:55:56;97662.81;;;7.44;100.00
65276;BME280;51875;49.994;14.052;2023-03-13T03:57:11;97663.81;;;7.71;100.00
65276;BME280;51875;49.994;14.052;2023-03-13T03:58:27;97660.75;;;7.87;100.00
65276;BME280;51875;49.994;14.052;2023-03-13T03:59:42;97655.78;;;7.77;100.00
65276;BME280;51875;49.994;14.052;2023-03-13T04:00:58;97658.94;;;7.89;100.00
65276;BME280;51875;49.994;14.052;2023-03-13T04:02:14;97653.94;;;7.83;100.00
65276;BME280;51875;49.994;14.052;2023-03-13T04:03:30;97650.22;;;7.90;100.00
65276;BME280;51875;49.994;14.052;2023-03-13T04:04:45;97646.81;;;7.88;100.00
65276;BME280;51875;49.994;14.052;2023-03-13T04:06:01;97643.44;;;7.84;100.00
65276;BME280;51875;49.994;14.052;2023-03-13T04:07:16;97649.19;;;7.96;100.00
65276;BME280;51875;49.994;14.052;2023-03-13T04:08:32;97642.25;;;7.96;100.00
65276;BME280;51875;49.994;14.052;2023-03-13T04:09:48;97647.28;;;8.01;100.00
65276;BME280;51875;49.994;14.052;2023-03-13T04:11:03;97650.75;;;8.01;100.00
65276;BME280;51875;49.994;14.052;2023-03-13T04:12:19;97641.03;;;8.06;100.00
65276;BME280;51875;49.994;14.052;2023-03-13T04:13:35;97645.00;;;7.90;100.00
65276;BME280;51875;49.994;14.052;2023-03-13T04:14:50;97642.41;;;7.90;100.00
65276;BME280;51875;49.994;14.052;2023-03-13T04:16:07;97646.38;;;8.02;100.00
65276;BME280;51875;49.994;14.052;2023-03-13T04:17:23;97645.81;;;7.92;100.00
65276;BME280;51875;49.994;14.052;2023-03-13T04:18:39;97644.75;;;7.99;100.00
65276;BME280;51875;49.994;14.052;2023-03-13T04:19:54;97639.22;;;8.09;100.00
65276;BME280;51875;49.994;14.052;2023-03-13T04:21:10;97636.91;;;7.99;100.00
65276;BME280;51875;49.994;14.052;2023-03-13T04:22:26;97630.75;;;8.02;100.00
65276;BME280;51875;49.994;14.052;2023-03-13T04:23:41;97630.50;;;8.10;100.00
65276;BME280;51875;49.994;14.052;2023-03-13T04:24:57;97632.25;;;8.11;100.00
65276;BME280;51875;49.994;14.052;2023-03-13T04:26:12;97625.50;;;8.32;100.00
65276;BME280;51875;49.994;14.052;2023-03-13T04:27:28;97619.63;;;8.25;100.00
65276;BME280;51875;49.994;14.052;2023-03-13T04:28:44;97614.06;;;8.08;100.00
65276;BME280;51875;49.994;14.052;2023-03-13T04:29:59;97620.06;;;8.10;100.00
65276;BME280;51875;49.994;14.052;2023-03-13T04:31:15;97615.97;;;8.02;100.00
65276;BME280;51875;49.994;14.052;2023-03-13T04:32:31;97617.31;;;8.14;100.00
65276;BME280;51875;49.994;14.052;2023-03-13T04:33:46;97616.19;;;8.23;100.00
65276;BME280;51875;49.994;14.052;2023-03-13T04:35:02;97612.69;;;8.24;100.00
65276;BME280;51875;49.994;14.052;2023-03-13T04:36:18;97613.81;;;8.15;100.00
65276;BME280;51875;49.994;14.052;2023-03-13T04:37:33;97610.78;;;8.29;100.00
65276;BME280;51875;49.994;14.052;2023-03-13T04:38:49;97612.50;;;8.30;100.00
65276;BME280;51875;49.994;14.052;2023-03-13T04:40:05;97610.78;;;8.29;100.00
65276;BME280;51875;49.994;14.052;2023-03-13T04:41:22;97608.75;;;8.38;100.00
65276;BME280;51875;49.994;14.052;2023-03-13T04:42:37;97609.41;;;8.44;100.00
65276;BME280;51875;49.994;14.052;2023-03-13T04:43:53;97612.84;;;8.46;100.00
65276;BME280;51875;49.994;14.052;2023-03-13T04:45:10;97613.44;;;8.56;100.00
65276;BME280;51875;49.994;14.052;2023-03-13T04:46:26;97615.16;;;8.56;100.00
65276;BME280;51875;49.994;14.052;2023-03-13T04:47:42;97616.25;;;8.48;100.00
65276;BME280;51875;49.994;14.052;2023-03-13T04:48:58;97614.69;;;8.43;100.00
65276;BME280;51875;49.994;14.052;2023-03-13T04:50:13;97615.88;;;8.61;100.00
65276;BME280;51875;49.994;14.052;2023-03-13T04:51:29;97617.88;;;8.53;100.00
65276;BME280;51875;49.994;14.052;2023-03-13T04:52:45;97614.50;;;8.49;100.00
65276;BME280;51875;49.994;14.052;2023-03-13T04:54:00;97615.97;;;8.58;100.00
65276;BME280;51875;49.994;14.052;2023-03-13T04:55:16;97610.75;;;8.58;100.00
65276;BME280;51875;49.994;14.052;2023-03-13T04:56:32;97612.25;;;8.65;100.00
65276;BME280;51875;49.994;14.052;2023-03-13T04:57:47;97609.91;;;8.83;100.00
65276;BME280;51875;49.994;14.052;2023-03-13T04:59:03;97606.75;;;8.74;100.00
65276;BME280;51875;49.994;14.052;2023-03-13T05:00:18;97605.19;;;8.69;100.00
65276;BME280;51875;49.994;14.052;2023-03-13T05:01:34;97600.00;;;8.67;100.00
65276;BME280;51875;49.994;14.052;2023-03-13T05:02:50;97594.09;;;8.87;100.00
65276;BME280;51875;49.994;14.052;2023-03-13T05:04:06;97607.53;;;9.02;100.00
65276;BME280;51875;49.994;14.052;2023-03-13T05:05:21;97607.69;;;8.72;100.00
65276;BME280;51875;49.994;14.052;2023-03-13T05:06:37;97608.00;;;8.62;100.00
65276;BME280;51875;49.994;14.052;2023-03-13T05:07:53;97597.78;;;8.82;100.00
65276;BME280;51875;49.994;14.052;2023-03-13T05:09:09;97604.78;;;8.81;100.00
65276;BME280;51875;49.994;14.052;2023-03-13T05:10:24;97599.75;;;8.75;100.00
65276;BME280;51875;49.994;14.052;2023-03-13T05:11:40;97595.97;;;8.84;100.00
65276;BME280;51875;49.994;14.052;2023-03-13T05:12:56;97593.34;;;8.84;100.00
65276;BME280;51875;49.994;14.052;2023-03-13T05:14:12;97593.25;;;8.87;100.00
65276;BME280;51875;49.994;14.052;2023-03-13T05:15:27;97579.41;;;9.10;100.00
65276;BME280;51875;49.994;14.052;2023-03-13T05:16:43;97587.97;;;8.88;100.00
65276;BME280;51875;49.994;14.052;2023-03-13T05:17:59;97583.66;;;8.87;100.00
65276;BME280;51875;49.994;14.052;2023-03-13T05:19:14;97583.06;;;8.79;100.00
65276;BME280;51875;49.994;14.052;2023-03-13T05:20:30;97584.53;;;8.88;100.00
65276;BME280;51875;49.994;14.052;2023-03-13T05:21:46;97574.78;;;8.93;100.00
65276;BME280;51875;49.994;14.052;2023-03-13T05:23:01;97582.66;;;8.92;100.00
65276;BME280;51875;49.994;14.052;2023-03-13T05:24:17;97568.16;;;9.08;100.00
65276;BME280;51875;49.994;14.052;2023-03-13T05:25:33;97573.53;;;9.03;100.00
65276;BME280;51875;49.994;14.052;2023-03-13T05:26:48;97570.31;;;8.97;100.00
65276;BME280;51875;49.994;14.052;2023-03-13T05:28:04;97559.91;;;8.95;100.00
65276;BME280;51875;49.994;14.052;2023-03-13T05:29:20;97565.25;;;8.67;100.00
65276;BME280;51875;49.994;14.052;2023-03-13T05:30:35;97561.34;;;8.79;100.00
65276;BME280;51875;49.994;14.052;2023-03-13T05:31:51;97559.16;;;8.66;100.00
65276;BME280;51875;49.994;14.052;2023-03-13T05:33:07;97557.31;;;8.70;100.00
65276;BME280;51875;49.994;14.052;2023-03-13T05:34:22;97553.28;;;8.85;100.00
65276;BME280;51875;49.994;14.052;2023-03-13T05:35:38;97542.94;;;8.83;100.00
65276;BME280;51875;49.994;14.052;2023-03-13T05:36:53;97549.69;;;8.89;100.00
65276;BME280;51875;49.994;14.052;2023-03-13T05:38:09;97541.63;;;8.95;100.00
65276;BME280;51875;49.994;14.052;2023-03-13T05:39:24;97541.81;;;9.14;100.00
65276;BME280;51875;49.994;14.052;2023-03-13T05:40:40;97535.78;;;8.88;100.00
65276;BME280;51875;49.994;14.052;2023-03-13T05:41:56;97538.25;;;8.68;100.00
65276;BME280;51875;49.994;14.052;2023-03-13T05:43:11;97539.59;;;8.78;100.00
65276;BME280;51875;49.994;14.052;2023-03-13T05:44:27;97536.44;;;8.70;100.00
65276;BME280;51875;49.994;14.052;2023-03-13T05:45:43;97542.50;;;8.70;100.00
65276;BME280;51875;49.994;14.052;2023-03-13T05:46:58;97541.94;;;8.86;100.00
65276;BME280;51875;49.994;14.052;2023-03-13T05:48:14;97538.13;;;8.71;100.00
65276;BME280;51875;49.994;14.052;2023-03-13T05:49:29;97538.53;;;9.09;100.00
65276;BME280;51875;49.994;14.052;2023-03-13T05:50:45;97532.13;;;9.18;100.00
65276;BME280;51875;49.994;14.052;2023-03-13T05:52:01;97533.81;;;9.19;100.00
65276;BME280;51875;49.994;14.052;2023-03-13T05:53:17;97530.78;;;9.06;100.00
65276;BME280;51875;49.994;14.052;2023-03-13T05:54:32;97529.81;;;8.85;100.00
65276;BME280;51875;49.994;14.052;2023-03-13T05:55:48;97528.75;;;9.14;100.00
65276;BME280;51875;49.994;14.052;2023-03-13T05:57:04;97525.91;;;8.97;100.00
65276;BME280;51875;49.994;14.052;2023-03-13T05:58:19;97527.81;;;8.92;100.00
65276;BME280;51875;49.994;14.052;2023-03-13T05:59:35;97524.38;;;8.91;100.00
65276;BME280;51875;49.994;14.052;2023-03-13T06:00:51;97527.38;;;9.04;100.00
65276;BME280;51875;49.994;14.052;2023-03-13T06:02:06;97530.63;;;9.11;100.00
65276;BME280;51875;49.994;14.052;2023-03-13T06:03:22;97531.94;;;9.23;100.00
65276;BME280;51875;49.994;14.052;2023-03-13T06:04:37;97533.81;;;9.19;100.00
65276;BME280;51875;49.994;14.052;2023-03-13T06:05:57;97537.97;;;9.25;100.00
65276;BME280;51875;49.994;14.052;2023-03-13T06:07:13;97529.09;;;9.29;100.00
65276;BME280;51875;49.994;14.052;2023-03-13T06:08:29;97531.25;;;9.41;100.00
65276;BME280;51875;49.994;14.052;2023-03-13T06:09:44;97533.59;;;9.47;100.00
65276;BME280;51875;49.994;14.052;2023-03-13T06:11:01;97534.22;;;9.54;100.00
65276;BME280;51875;49.994;14.052;2023-03-13T06:12:17;97535.53;;;9.66;100.00
65276;BME280;51875;49.994;14.052;2023-03-13T06:13:33;97525.41;;;9.35;100.00
65276;BME280;51875;49.994;14.052;2023-03-13T06:14:48;97538.00;;;9.47;100.00
65276;BME280;51875;49.994;14.052;2023-03-13T06:16:04;97527.56;;;9.69;100.00
65276;BME280;51875;49.994;14.052;2023-03-13T06:17:20;97526.91;;;9.64;100.00
65276;BME280;51875;49.994;14.052;2023-03-13T06:18:36;97529.69;;;9.82;100.00
65276;BME280;51875;49.994;14.052;2023-03-13T06:19:51;97519.00;;;9.66;100.00
65276;BME280;51875;49.994;14.052;2023-03-13T06:21:07;97518.69;;;9.73;100.00
65276;BME280;51875;49.994;14.052;2023-03-13T06:22:23;97518.19;;;9.64;100.00
65276;BME280;51875;49.994;14.052;2023-03-13T06:23:39;97513.50;;;9.50;100.00
65276;BME280;51875;49.994;14.052;2023-03-13T06:24:56;97512.50;;;9.54;100.00
65276;BME280;51875;49.994;14.052;2023-03-13T06:26:12;97507.91;;;9.59;100.00
65276;BME280;51875;49.994;14.052;2023-03-13T06:27:27;97504.97;;;9.68;100.00
65276;BME280;51875;49.994;14.052;2023-03-13T06:28:43;97512.31;;;9.58;100.00
65276;BME280;51875;49.994;14.052;2023-03-13T06:29:59;97502.38;;;9.44;100.00
65276;BME280;51875;49.994;14.052;2023-03-13T06:31:14;97510.09;;;9.47;100.00
65276;BME280;51875;49.994;14.052;2023-03-13T06:32:30;97509.44;;;9.65;100.00
65276;BME280;51875;49.994;14.052;2023-03-13T06:33:46;97511.09;;;9.67;100.00
65276;BME280;51875;49.994;14.052;2023-03-13T06:35:01;97501.97;;;9.55;100.00
65276;BME280;51875;49.994;14.052;2023-03-13T06:36:17;97501.13;;;9.77;100.00
65276;BME280;51875;49.994;14.052;2023-03-13T06:37:33;97501.13;;;9.77;100.00
65276;BME280;51875;49.994;14.052;2023-03-13T06:38:49;97494.03;;;9.81;100.00
65276;BME280;51875;49.994;14.052;2023-03-13T06:40:05;97491.41;;;9.81;100.00
65276;BME280;51875;49.994;14.052;2023-03-13T06:41:21;97486.81;;;9.86;100.00
65276;BME280;51875;49.994;14.052;2023-03-13T06:42:36;97491.81;;;9.70;100.00